Time;durP1;ratioP1;P1;durP2;ratioP2;P2;SDS_P1;SDS_P2;PMS_P1;PMS_P2;Temp;Humidity;BMP_temperature;BMP_pressure;BME280_temperature;BME280_humidity;BME280_pressure;Samples;Min_cycle;Max_cycle;Signal;HPM_P1;HPM_P2
2022/07/03 00:00:47;;;;;;;5.97;3.70;;;;;;;15.34;100.00;101545.03;5234194;28;20493;-71
2022/07/03 00:03:18;;;;;;;6.38;3.50;;;;;;;15.26;100.00;101547.50;5236255;28;20028;-71
2022/07/03 00:05:50;;;;;;;4.75;3.20;;;;;;;15.23;100.00;101548.63;5233397;28;20112;-71
2022/07/03 00:08:21;;;;;;;4.97;3.50;;;;;;;15.20;100.00;101539.97;5233344;28;20035;-72
2022/07/03 00:10:53;;;;;;;8.13;3.80;;;;;;;15.17;100.00;101546.47;5227110;28;20070;-71
2022/07/03 00:13:24;;;;;;;6.63;4.72;;;;;;;15.13;100.00;101546.84;5225703;28;20021;-71
2022/07/03 00:15:55;;;;;;;7.53;4.57;;;;;;;15.12;100.00;101555.91;5228513;28;20179;-71
2022/07/03 00:18:27;;;;;;;9.30;5.40;;;;;;;15.18;100.00;101561.59;5233849;28;20115;-71
2022/07/03 00:21:08;;;;;;;6.13;4.47;;;;;;;15.13;100.00;101579.09;5231871;28;20020;-71
2022/07/03 00:23:51;;;;;;;6.65;4.40;;;;;;;15.04;100.00;101576.19;5232392;28;20028;-72
2022/07/03 00:26:24;;;;;;;6.97;4.28;;;;;;;14.97;100.00;101590.28;5244278;28;20028;-71
2022/07/03 00:29:00;;;;;;;6.43;4.47;;;;;;;14.92;100.00;101570.97;5228162;28;20028;-71
2022/07/03 00:31:32;;;;;;;7.70;4.90;;;;;;;14.91;100.00;101586.25;5229221;28;20029;-71
2022/07/03 00:34:09;;;;;;;7.30;4.82;;;;;;;14.87;100.00;101595.56;5225459;28;20052;-72
2022/07/03 00:36:41;;;;;;;7.00;5.15;;;;;;;14.82;100.00;101593.28;5226402;28;20039;-72
2022/07/03 00:39:12;;;;;;;7.22;5.00;;;;;;;14.79;100.00;101593.50;5225094;28;20147;-71
2022/07/03 00:41:46;;;;;;;8.68;5.25;;;;;;;14.77;100.00;101589.25;5227315;28;20084;-71
2022/07/03 00:44:18;;;;;;;7.18;5.03;;;;;;;14.75;100.00;101588.53;5222949;28;20055;-71
2022/07/03 00:46:52;;;;;;;8.90;5.22;;;;;;;14.72;100.00;101588.78;5230840;28;20434;-71
2022/07/03 00:49:23;;;;;;;6.30;5.03;;;;;;;14.68;100.00;101586.31;5232735;28;20483;-72
2022/07/03 00:51:56;;;;;;;8.65;5.10;;;;;;;14.65;100.00;101585.72;5236344;28;20033;-71
2022/07/03 00:54:31;;;;;;;9.18;5.07;;;;;;;14.63;100.00;101583.19;5232495;28;20107;-71
2022/07/03 00:57:03;;;;;;;7.35;5.32;;;;;;;14.68;100.00;101586.31;5234260;28;20045;-71
2022/07/03 00:59:34;;;;;;;7.90;4.50;;;;;;;14.66;100.00;101588.28;5232769;28;20484;-71
2022/07/03 01:02:08;;;;;;;6.18;4.82;;;;;;;14.57;100.00;101586.34;5231964;28;20021;-71
2022/07/03 01:05:01;;;;;;;5.73;5.00;;;;;;;14.57;100.00;101580.97;5231948;28;20026;-71
2022/07/03 01:08:13;;;;;;;7.50;5.15;;;;;;;14.49;100.00;101578.88;5234739;28;20095;-71
2022/07/03 01:11:02;;;;;;;9.07;5.40;;;;;;;14.44;100.00;101572.19;5233257;28;20052;-71
2022/07/03 01:14:11;;;;;;;7.53;5.05;;;;;;;14.45;100.00;101582.81;5234042;28;20098;-71
2022/07/03 01:16:58;;;;;;;7.45;4.72;;;;;;;14.40;100.00;101578.78;5243886;28;20032;-71
2022/07/03 01:19:32;;;;;;;8.25;5.55;;;;;;;14.38;100.00;101586.97;5222350;28;20025;-71
2022/07/03 01:22:24;;;;;;;7.70;4.82;;;;;;;14.37;100.00;101589.78;5224928;28;20119;-71
2022/07/03 01:25:15;;;;;;;7.95;5.30;;;;;;;14.32;100.00;101591.03;5244031;28;20041;-71
2022/07/03 01:28:01;;;;;;;6.13;4.97;;;;;;;14.26;100.00;101591.47;5228317;28;20033;-71
2022/07/03 01:30:43;;;;;;;8.60;5.63;;;;;;;14.30;100.00;101592.09;5242583;28;20029;-71
2022/07/03 01:33:18;;;;;;;8.60;6.05;;;;;;;14.28;100.00;101583.31;5235140;28;20037;-71
2022/07/03 01:36:06;;;;;;;8.02;5.80;;;;;;;14.23;100.00;101583.69;5236994;28;20033;-71
2022/07/03 01:38:42;;;;;;;8.40;6.43;;;;;;;14.21;100.00;101577.59;5232396;28;20442;-71
2022/07/03 01:41:14;;;;;;;10.88;6.50;;;;;;;14.20;100.00;101569.66;5240286;28;20033;-71
2022/07/03 01:43:55;;;;;;;7.20;6.50;;;;;;;14.18;100.00;101583.19;5243534;28;20032;-71
2022/07/03 01:46:28;;;;;;;8.52;6.68;;;;;;;14.13;100.00;101574.66;5235288;28;20171;-71
2022/07/03 01:49:02;;;;;;;8.32;6.60;;;;;;;14.12;100.00;101581.00;5242042;28;20033;-71
2022/07/03 01:51:35;;;;;;;8.98;7.13;;;;;;;14.08;100.00;101584.91;5244305;28;20451;-71
2022/07/03 01:54:09;;;;;;;8.60;7.25;;;;;;;14.06;100.00;101589.56;5239861;28;20460;-71
2022/07/03 01:56:41;;;;;;;10.18;7.28;;;;;;;14.07;100.00;101588.56;5252123;28;20049;-71
2022/07/03 01:59:12;;;;;;;9.77;6.93;;;;;;;14.01;100.00;101578.31;5245470;28;20036;-71
2022/07/03 02:02:02;;;;;;;11.45;7.28;;;;;;;13.99;100.00;101577.59;5249819;28;20034;-71
2022/07/03 02:04:42;;;;;;;8.05;7.10;;;;;;;13.90;100.00;101580.03;5242723;28;20040;-71
2022/07/03 02:07:24;;;;;;;9.05;7.43;;;;;;;13.89;100.00;101572.09;5248482;28;20102;-71
2022/07/03 02:10:04;;;;;;;11.35;8.23;;;;;;;13.86;100.00;101564.28;5244200;28;20033;-71
2022/07/03 02:12:45;;;;;;;10.48;8.30;;;;;;;13.78;100.00;101566.72;5243277;28;20021;-71
2022/07/03 02:15:25;;;;;;;10.10;8.40;;;;;;;13.81;100.00;101566.50;5245904;28;20033;-71
2022/07/03 02:17:57;;;;;;;10.43;8.57;;;;;;;13.77;100.00;101560.53;5241464;28;20097;-71
2022/07/03 02:20:35;;;;;;;11.35;8.48;;;;;;;13.66;100.00;101561.34;5236143;28;20428;-71
2022/07/03 02:23:08;;;;;;;11.63;8.77;;;;;;;13.65;100.00;101554.28;5244632;28;20154;-71
2022/07/03 02:25:44;;;;;;;10.43;8.77;;;;;;;13.65;100.00;101566.81;5235336;28;20026;-72
2022/07/03 02:28:30;;;;;;;9.75;8.20;;;;;;;13.59;100.00;101562.78;5255278;28;20054;-71
2022/07/03 02:31:05;;;;;;;10.30;8.27;;;;;;;13.58;100.00;101555.75;5245537;28;20560;-71
2022/07/03 02:33:40;;;;;;;9.85;8.40;;;;;;;13.59;100.00;101561.94;5247009;28;20505;-71
2022/07/03 02:36:14;;;;;;;9.60;7.45;;;;;;;13.52;100.00;101565.13;5244167;28;20506;-71
2022/07/03 02:38:53;;;;;;;10.20;7.97;;;;;;;13.50;100.00;101568.88;5236141;28;20119;-71
2022/07/03 02:41:37;;;;;;;9.38;8.20;;;;;;;13.51;100.00;101566.06;5231966;28;20041;-71
2022/07/03 02:44:22;;;;;;;11.47;8.17;;;;;;;13.51;100.00;101567.91;5243652;28;20392;-71
2022/07/03 02:47:06;;;;;;;8.88;7.82;;;;;;;13.44;100.00;101562.19;5240963;28;20032;-71
2022/07/03 02:49:58;;;;;;;9.43;7.80;;;;;;;13.46;100.00;101559.34;5235248;28;20029;-71
2022/07/03 02:52:38;;;;;;;9.35;7.78;;;;;;;13.43;100.00;101556.94;5241462;28;20099;-71
2022/07/03 02:55:31;;;;;;;9.98;7.75;;;;;;;13.38;100.00;101556.41;5241934;28;20029;-71
2022/07/03 02:58:38;;;;;;;9.55;7.20;;;;;;;13.36;100.00;101556.53;5241679;28;20041;-71
2022/07/03 03:01:15;;;;;;;11.50;7.10;;;;;;;13.27;100.00;101555.41;5236360;28;20777;-71
2022/07/03 03:04:08;;;;;;;8.90;7.22;;;;;;;13.29;100.00;101556.13;5241413;28;20068;-70
2022/07/03 03:06:48;;;;;;;11.65;7.40;;;;;;;13.27;100.00;101563.44;5241111;28;20509;-71
2022/07/03 03:09:27;;;;;;;8.95;6.95;;;;;;;13.23;100.00;101559.28;5235668;28;20430;-70
2022/07/03 03:12:01;;;;;;;7.55;6.53;;;;;;;13.18;100.00;101569.50;5225874;28;20385;-70
2022/07/03 03:14:44;;;;;;;9.77;7.68;;;;;;;13.22;100.00;101573.66;5231351;28;20017;-70
2022/07/03 03:17:24;;;;;;;9.93;7.15;;;;;;;13.17;100.00;101566.94;5239522;28;20453;-70
2022/07/03 03:19:58;;;;;;;8.35;7.32;;;;;;;13.14;100.00;101570.69;5224682;28;20037;-70
2022/07/03 03:22:38;;;;;;;;;;;;;;;13.23;100.00;101575.38;5227258;28;20039;-70
2022/07/03 03:25:09;;;;;;;8.90;6.90;;;;;;;13.16;100.00;101571.44;5229811;28;19923;-70
2022/07/03 03:27:41;;;;;;;8.57;7.15;;;;;;;13.13;100.00;101567.19;5227028;28;20029;-70
2022/07/03 03:30:12;;;;;;;10.18;6.93;;;;;;;13.13;100.00;101574.34;5225918;28;20033;-71
2022/07/03 03:32:44;;;;;;;9.32;7.53;;;;;;;13.20;100.00;101578.28;5229907;28;20040;-70
2022/07/03 03:35:16;;;;;;;10.40;7.47;;;;;;;13.12;100.00;101578.00;5232176;28;20035;-70
2022/07/03 03:37:48;;;;;;;9.77;7.68;;;;;;;13.16;100.00;101584.84;5230324;28;20037;-70
2022/07/03 03:40:20;;;;;;;8.07;6.47;;;;;;;13.16;100.00;101584.00;5229793;28;20030;-70
2022/07/03 03:42:51;;;;;;;10.35;6.95;;;;;;;13.09;100.00;101580.91;5230572;28;20044;-70
2022/07/03 03:45:22;;;;;;;11.65;6.90;;;;;;;13.09;100.00;101584.44;5224397;28;20033;-70
2022/07/03 03:47:54;;;;;;;8.27;6.50;;;;;;;13.17;100.00;101581.16;5225954;28;20156;-70
2022/07/03 03:50:28;;;;;;;7.43;6.60;;;;;;;13.19;100.00;101576.53;5238075;28;20750;-70
2022/07/03 03:53:00;;;;;;;7.32;6.20;;;;;;;13.20;100.00;101580.94;5230547;28;20028;-70
2022/07/03 03:55:31;;;;;;;8.85;6.45;;;;;;;13.17;100.00;101575.81;5233295;28;20025;-70
2022/07/03 03:58:04;;;;;;;8.13;6.60;;;;;;;13.19;100.00;101573.03;5227741;28;20411;-70
2022/07/03 04:00:35;;;;;;;9.07;6.25;;;;;;;13.29;100.00;101574.91;5232679;28;21177;-70
2022/07/03 04:03:06;;;;;;;6.75;5.95;;;;;;;13.23;100.00;101575.38;5232248;28;20038;-70
2022/07/03 04:05:38;;;;;;;8.75;5.55;;;;;;;13.23;100.00;101579.84;5229661;28;20145;-70
2022/07/03 04:08:10;;;;;;;7.43;6.07;;;;;;;13.28;100.00;101572.31;5225799;28;20108;-70
2022/07/03 04:10:41;;;;;;;9.27;6.60;;;;;;;13.24;100.00;101581.56;5225760;28;20578;-70
2022/07/03 04:13:14;;;;;;;8.15;6.35;;;;;;;13.29;100.00;101582.09;5236342;28;20025;-70
2022/07/03 04:15:46;;;;;;;6.43;5.75;;;;;;;13.24;100.00;101576.22;5222367;28;20084;-70
2022/07/03 04:18:17;;;;;;;8.25;5.78;;;;;;;13.26;100.00;101585.00;5224936;28;20075;-70
2022/07/03 04:20:49;;;;;;;6.85;5.80;;;;;;;13.24;100.00;101587.78;5227521;28;20526;-70
2022/07/03 04:23:21;;;;;;;8.40;5.88;;;;;;;13.24;100.00;101581.56;5223299;28;20223;-70
2022/07/03 04:25:52;;;;;;;9.00;6.35;;;;;;;13.22;100.00;101578.16;5224918;28;20550;-70
2022/07/03 04:28:23;;;;;;;7.60;5.55;;;;;;;13.25;100.00;101578.78;5224042;28;20029;-70
2022/07/03 04:30:54;;;;;;;8.10;6.05;;;;;;;13.22;100.00;101588.88;5224903;28;20051;-70
2022/07/03 04:33:26;;;;;;;9.35;6.65;;;;;;;13.25;100.00;101581.47;5226330;28;20033;-70
2022/07/03 04:35:57;;;;;;;10.63;6.82;;;;;;;13.34;100.00;101590.66;5226644;28;20107;-70
2022/07/03 04:38:30;;;;;;;7.65;6.50;;;;;;;13.44;100.00;101590.78;5234792;28;20159;-70
2022/07/03 04:41:02;;;;;;;8.95;6.38;;;;;;;13.64;100.00;101597.31;5225730;28;20561;-70
2022/07/03 04:43:33;;;;;;;9.50;6.32;;;;;;;13.72;100.00;101600.25;5233199;28;21868;-70
2022/07/03 04:46:04;;;;;;;9.38;5.78;;;;;;;13.81;100.00;101602.22;5225318;28;20118;-70
2022/07/03 04:48:36;;;;;;;9.48;6.25;;;;;;;13.83;100.00;101610.16;5232186;28;20041;-70
2022/07/03 04:51:07;;;;;;;7.15;5.65;;;;;;;13.84;100.00;101603.78;5236508;28;20083;-71
2022/07/03 04:53:38;;;;;;;9.02;6.05;;;;;;;13.88;100.00;101610.63;5240781;28;20025;-70
2022/07/03 04:56:10;;;;;;;8.27;6.07;;;;;;;13.99;100.00;101616.00;5240558;28;20045;-70
2022/07/03 04:58:41;;;;;;;5.95;5.30;;;;;;;14.10;100.00;101605.28;5237392;28;20036;-70
2022/07/03 05:01:12;;;;;;;6.05;5.20;;;;;;;14.12;100.00;101615.91;5238879;28;20356;-71
2022/07/03 05:03:44;;;;;;;7.32;5.45;;;;;;;14.10;100.00;101609.81;5239610;28;20555;-70
2022/07/03 05:06:15;;;;;;;6.88;5.28;;;;;;;14.14;100.00;101607.72;5238042;28;20383;-70
2022/07/03 05:08:46;;;;;;;7.50;5.47;;;;;;;14.21;100.00;101611.63;5234873;28;20594;-70
2022/07/03 05:11:17;;;;;;;9.00;5.57;;;;;;;14.29;100.00;101610.03;5233286;28;20037;-70
2022/07/03 05:13:49;;;;;;;8.43;5.25;;;;;;;14.37;100.00;101601.38;5231349;28;20024;-70
2022/07/03 05:16:20;;;;;;;7.45;5.00;;;;;;;14.38;100.00;101605.78;5245025;28;20072;-70
2022/07/03 05:18:51;;;;;;;8.68;5.05;;;;;;;14.39;100.00;101609.31;5238573;28;20040;-70
2022/07/03 05:21:23;;;;;;;7.22;5.45;;;;;;;14.34;100.00;101612.34;5226075;28;20099;-70
2022/07/03 05:23:54;;;;;;;8.60;5.03;;;;;;;14.28;100.00;101623.59;5230953;28;20040;-70
2022/07/03 05:26:25;;;;;;;6.85;5.07;;;;;;;14.24;100.00;101625.66;5229387;28;20157;-70
2022/07/03 05:28:56;;;;;;;7.80;4.88;;;;;;;14.21;100.00;101620.53;5221613;28;20037;-71
2022/07/03 05:31:28;;;;;;;8.70;5.30;;;;;;;14.21;100.00;101623.22;5228101;28;20479;-70
2022/07/03 05:33:59;;;;;;;6.60;5.15;;;;;;;14.21;100.00;101617.84;5225482;28;20376;-70
2022/07/03 05:36:30;;;;;;;6.43;5.32;;;;;;;14.22;100.00;101618.72;5223932;28;20036;-70
2022/07/03 05:41:51;;;;;;;9.05;4.85;;;;;;;14.29;100.00;101631.50;5222316;28;20037;-70
2022/07/03 05:44:23;;;;;;;7.55;4.78;;;;;;;14.32;100.00;101638.47;5227290;28;20025;-70
2022/07/03 05:46:54;;;;;;;7.55;5.05;;;;;;;14.42;100.00;101633.22;5230038;28;20052;-70
2022/07/03 05:49:25;;;;;;;7.53;4.88;;;;;;;14.39;100.00;101628.09;5234674;28;20667;-70
2022/07/03 05:51:57;;;;;;;10.40;4.53;;;;;;;14.45;100.00;101625.75;5237752;28;20585;-71
2022/07/03 05:54:28;;;;;;;7.38;4.43;;;;;;;14.49;100.00;101621.84;5231538;28;20037;-70
2022/07/03 05:56:59;;;;;;;6.47;4.55;;;;;;;14.55;100.00;101628.56;5227989;28;20061;-70
2022/07/03 05:59:31;;;;;;;8.00;4.53;;;;;;;14.62;100.00;101629.81;5237689;28;20226;-70
2022/07/03 06:02:02;;;;;;;7.88;4.82;;;;;;;14.70;100.00;101632.72;5237971;28;20028;-71
2022/07/03 06:04:33;;;;;;;8.55;5.05;;;;;;;14.73;100.00;101637.00;5241226;28;20064;-70
2022/07/03 06:07:05;;;;;;;7.72;5.32;;;;;;;14.81;100.00;101631.00;5242064;28;20083;-70
2022/07/03 06:09:36;;;;;;;9.38;4.78;;;;;;;14.94;100.00;101644.25;5240180;28;20061;-70
2022/07/03 06:12:08;;;;;;;9.55;4.78;;;;;;;15.04;100.00;101643.38;5238688;28;20672;-71
2022/07/03 06:14:39;;;;;;;8.85;5.25;;;;;;;15.15;100.00;101637.13;5234313;28;20078;-70
2022/07/03 06:17:10;;;;;;;8.18;4.78;;;;;;;15.25;100.00;101638.06;5226540;28;20071;-70
2022/07/03 06:19:41;;;;;;;7.53;4.97;;;;;;;15.41;100.00;101639.47;5238722;28;20039;-71
2022/07/03 06:22:13;;;;;;;6.55;4.55;;;;;;;15.54;100.00;101636.59;5238695;28;20033;-71
2022/07/03 06:24:44;;;;;;;8.13;4.88;;;;;;;15.74;100.00;101638.44;5234519;28;20094;-71
2022/07/03 06:27:15;;;;;;;8.93;4.97;;;;;;;15.92;99.91;101635.19;5232909;28;20411;-71
2022/07/03 06:29:46;;;;;;;8.15;4.70;;;;;;;16.03;99.87;101637.75;5231530;28;20430;-71
2022/07/03 06:32:18;;;;;;;9.93;4.57;;;;;;;16.06;99.05;101635.66;5232934;28;20033;-72
2022/07/03 06:34:49;;;;;;;10.27;4.20;;;;;;;16.13;98.47;101635.13;5236501;28;20083;-71
2022/07/03 06:37:22;;;;;;;7.55;4.40;;;;;;;16.15;98.89;101633.19;5240529;28;20064;-71
2022/07/03 06:39:53;;;;;;;6.40;4.40;;;;;;;16.29;98.32;101640.88;5241471;28;20472;-72
2022/07/03 06:42:24;;;;;;;8.18;4.40;;;;;;;16.40;97.15;101638.09;5234552;28;20066;-70
2022/07/03 06:44:56;;;;;;;8.32;4.13;;;;;;;16.48;97.10;101641.94;5239130;28;20594;-71
2022/07/03 06:47:27;;;;;;;8.02;4.22;;;;;;;16.56;95.70;101642.09;5252254;28;20086;-71
2022/07/03 06:49:58;;;;;;;7.43;4.15;;;;;;;16.65;95.89;101638.59;5239002;28;20059;-70
2022/07/03 06:52:29;;;;;;;7.88;4.40;;;;;;;16.64;95.71;101640.44;5239656;28;20028;-71
2022/07/03 06:55:01;;;;;;;10.20;4.15;;;;;;;16.69;94.37;101636.47;5235941;28;20482;-71
2022/07/03 06:57:32;;;;;;;7.88;4.22;;;;;;;16.83;94.49;101646.88;5244561;28;20045;-71
2022/07/03 07:00:05;;;;;;;6.43;4.00;;;;;;;16.91;94.04;101649.72;5248785;28;20044;-71
2022/07/03 07:02:36;;;;;;;8.77;3.90;;;;;;;16.89;94.07;101640.94;5244876;28;20036;-71
2022/07/03 07:05:07;;;;;;;6.90;4.50;;;;;;;16.87;94.47;101651.00;5247691;28;20059;-71
2022/07/03 07:07:39;;;;;;;9.38;4.20;;;;;;;17.05;94.06;101646.66;5255179;28;20032;-71
2022/07/03 07:10:10;;;;;;;7.47;4.22;;;;;;;17.22;93.08;101646.94;5259453;28;20494;-70
2022/07/03 07:12:41;;;;;;;10.07;4.55;;;;;;;17.22;92.60;101644.22;5259969;28;20028;-72
2022/07/03 07:15:13;;;;;;;10.27;4.03;;;;;;;17.29;92.28;101642.69;5245993;28;20037;-72
2022/07/03 07:17:44;;;;;;;9.73;3.83;;;;;;;17.44;91.92;101645.81;5254478;28;20493;-71
2022/07/03 07:20:15;;;;;;;7.78;3.83;;;;;;;17.44;91.65;101643.13;5252829;28;20359;-71
2022/07/03 07:22:46;;;;;;;7.75;4.00;;;;;;;17.54;90.70;101641.25;5254976;28;20033;-71
2022/07/03 07:25:18;;;;;;;6.97;4.03;;;;;;;17.67;91.66;101657.16;5249777;28;20070;-71
2022/07/03 07:27:49;;;;;;;6.90;3.58;;;;;;;17.69;90.91;101641.66;5246789;28;20103;-71
2022/07/03 07:30:20;;;;;;;6.20;3.75;;;;;;;17.72;88.86;101657.56;5253874;28;20025;-72
2022/07/03 07:32:52;;;;;;;8.07;3.67;;;;;;;17.76;87.80;101660.84;5245296;28;20036;-71
2022/07/03 07:35:23;;;;;;;8.30;3.65;;;;;;;17.82;89.06;101657.56;5253496;28;20037;-71
2022/07/03 07:37:54;;;;;;;9.63;3.63;;;;;;;17.95;87.28;101655.44;5239475;28;20479;-71
2022/07/03 07:40:25;;;;;;;6.43;3.75;;;;;;;18.09;86.03;101656.81;5246218;28;20393;-71
2022/07/03 07:42:57;;;;;;;4.80;3.30;;;;;;;18.21;85.66;101663.72;5249432;28;20383;-71
2022/07/03 07:45:28;;;;;;;5.90;2.90;;;;;;;18.27;84.33;101664.16;5249352;28;20060;-71
2022/07/03 07:47:59;;;;;;;7.97;3.70;;;;;;;18.23;84.54;101661.72;5254690;28;20200;-71
2022/07/03 07:50:31;;;;;;;6.05;3.28;;;;;;;18.40;85.19;101662.81;5242526;28;20570;-71
2022/07/03 07:53:02;;;;;;;7.93;3.33;;;;;;;18.51;84.25;101666.34;5249482;28;20027;-71
2022/07/03 07:55:33;;;;;;;6.38;3.75;;;;;;;18.46;84.34;101660.50;5254268;28;20523;-70
2022/07/03 07:58:05;;;;;;;7.70;3.70;;;;;;;18.50;83.96;101670.88;5246470;28;20021;-72
2022/07/03 08:00:36;;;;;;;6.40;3.38;;;;;;;18.55;84.98;101665.03;5243202;28;20052;-71
2022/07/03 08:05:57;;;;;;;6.55;3.78;;;;;;;18.77;85.10;101661.94;5239513;28;20037;-71
2022/07/03 08:08:29;;;;;;;6.63;3.40;;;;;;;18.86;85.06;101665.59;5241616;28;20029;-71
2022/07/03 08:11:00;;;;;;;6.22;3.42;;;;;;;19.09;83.89;101667.88;5247570;28;20055;-71
2022/07/03 08:13:31;;;;;;;6.03;3.80;;;;;;;19.07;82.48;101672.59;5244055;28;20039;-72
2022/07/03 08:16:03;;;;;;;7.38;3.53;;;;;;;19.23;82.28;101667.31;5249269;28;20506;-71
2022/07/03 08:18:34;;;;;;;5.50;3.28;;;;;;;19.35;81.92;101674.22;5252919;28;20107;-71
2022/07/03 08:21:05;;;;;;;5.50;3.38;;;;;;;19.39;80.81;101666.66;5253142;28;20029;-71
2022/07/03 08:23:37;;;;;;;6.97;3.55;;;;;;;19.50;80.64;101670.97;5243054;28;20105;-72
2022/07/03 08:26:08;;;;;;;5.35;3.88;;;;;;;19.53;78.96;101667.94;5236222;28;20029;-72
2022/07/03 08:28:39;;;;;;;5.05;3.40;;;;;;;19.52;80.43;101669.81;5246237;28;20589;-71
2022/07/03 08:31:10;;;;;;;9.05;3.80;;;;;;;19.68;79.41;101666.38;5247274;28;20107;-72
2022/07/03 08:33:42;;;;;;;6.03;3.50;;;;;;;19.86;79.73;101669.06;5246066;28;20021;-72
2022/07/03 08:36:13;;;;;;;7.63;4.10;;;;;;;19.83;77.82;101673.97;5250400;28;20098;-71
2022/07/03 08:38:44;;;;;;;7.03;3.67;;;;;;;19.97;79.35;101665.28;5246862;28;20029;-72
2022/07/03 08:41:16;;;;;;;6.40;3.47;;;;;;;20.01;79.72;101660.38;5244615;28;20086;-71
2022/07/03 08:43:50;;;;;;;7.70;3.13;;;;;;;20.09;78.09;101665.84;5251238;28;20166;-75
2022/07/03 08:46:22;;;;;;;5.18;3.20;;;;;;;19.99;76.78;101663.25;5237431;28;20064;-73
2022/07/03 08:48:53;;;;;;;5.45;2.80;;;;;;;20.08;75.46;101667.72;5244954;28;20399;-72
2022/07/03 08:51:26;;;;;;;5.68;2.88;;;;;;;20.02;75.07;101673.78;5255926;28;20108;-72
2022/07/03 08:54:01;;;;;;;6.20;3.80;;;;;;;19.96;74.86;101663.56;5252093;28;20167;-72
2022/07/03 08:56:35;;;;;;;5.45;3.92;;;;;;;20.01;74.67;101657.69;5244261;28;20045;-72
2022/07/03 08:59:08;;;;;;;5.95;3.22;;;;;;;20.20;75.55;101670.16;5238286;28;20068;-72
2022/07/03 09:01:41;;;;;;;6.78;3.38;;;;;;;20.16;74.54;101664.22;5241286;28;20071;-73
2022/07/03 09:04:13;;;;;;;4.70;2.30;;;;;;;20.13;73.42;101664.50;5246977;28;20112;-73
2022/07/03 09:06:44;;;;;;;4.80;2.60;;;;;;;19.92;73.35;101654.94;5247874;28;20172;-73
2022/07/03 09:09:15;;;;;;;4.45;3.00;;;;;;;19.94;74.20;101662.88;5243811;28;20043;-71
2022/07/03 09:11:47;;;;;;;5.45;3.05;;;;;;;19.96;73.61;101669.84;5254544;28;20040;-72
2022/07/03 09:14:19;;;;;;;4.28;2.67;;;;;;;20.05;74.35;101648.22;5254062;28;20668;-71
2022/07/03 09:16:51;;;;;;;4.68;2.50;;;;;;;20.39;74.32;101659.06;5246667;28;20032;-72
2022/07/03 09:19:43;;;;;;;5.55;2.80;;;;;;;20.44;73.69;101662.16;5240993;28;20033;-73
2022/07/03 09:22:35;;;;;;;4.47;2.35;;;;;;;20.65;72.56;101659.06;5250947;28;20183;-72
2022/07/03 09:25:10;;;;;;;4.53;2.80;;;;;;;20.65;71.46;101667.19;5245244;28;20551;-72
2022/07/03 09:27:52;;;;;;;4.18;2.70;;;;;;;20.67;70.76;101673.31;5252683;28;20028;-72
2022/07/03 09:30:23;;;;;;;4.75;2.50;;;;;;;20.73;69.33;101671.81;5248074;28;20546;-73
2022/07/03 09:32:55;;;;;;;4.53;2.85;;;;;;;20.84;69.38;101676.91;5242510;28;20139;-73
2022/07/03 09:35:26;;;;;;;4.78;2.50;;;;;;;20.96;69.27;101674.75;5248508;28;20072;-72
2022/07/03 09:38:03;;;;;;;4.95;3.05;;;;;;;21.10;68.38;101682.25;5240744;28;20098;-73
2022/07/03 09:40:51;;;;;;;4.97;3.15;;;;;;;21.32;70.60;101688.91;5242783;28;20820;-72
2022/07/03 09:43:28;;;;;;;6.32;3.72;;;;;;;21.24;68.95;101683.44;5240906;28;20033;-72
2022/07/03 09:46:01;;;;;;;6.18;3.20;;;;;;;21.66;69.77;101684.38;5246105;28;20044;-72
2022/07/03 09:48:35;;;;;;;4.77;3.30;;;;;;;21.56;67.49;101687.25;5243838;28;20082;-73
2022/07/03 09:51:23;;;;;;;4.97;2.97;;;;;;;21.54;67.88;101687.41;5250271;28;20355;-71
2022/07/03 09:54:02;;;;;;;6.85;3.63;;;;;;;21.66;69.06;101679.78;5247040;28;20115;-73
2022/07/03 09:56:38;;;;;;;7.50;4.00;;;;;;;21.58;68.08;101684.38;5258561;28;20053;-72
2022/07/03 09:59:14;;;;;;;4.78;3.03;;;;;;;21.70;68.39;101681.13;5241851;28;20058;-72
2022/07/03 10:01:46;;;;;;;5.75;3.78;;;;;;;21.47;65.10;101680.13;5246518;28;20079;-73
2022/07/03 10:04:20;;;;;;;5.07;2.88;;;;;;;21.85;64.86;101672.31;5256658;28;20029;-72
2022/07/03 10:06:51;;;;;;;4.85;2.13;;;;;;;21.99;62.96;101679.75;5249104;28;20029;-73
2022/07/03 10:09:28;;;;;;;3.35;2.30;;;;;;;22.16;64.46;101682.44;5254908;28;20033;-72
2022/07/03 10:12:02;;;;;;;4.65;2.38;;;;;;;22.04;64.35;101681.97;5247922;28;20051;-72
2022/07/03 10:14:33;;;;;;;4.90;2.38;;;;;;;22.21;63.94;101677.34;5247186;28;20354;-73
2022/07/03 10:17:06;;;;;;;4.97;2.22;;;;;;;22.42;65.43;101684.97;5254733;28;20025;-72
2022/07/03 10:19:39;;;;;;;5.30;2.50;;;;;;;22.27;62.47;101682.94;5250413;28;20029;-72
2022/07/03 10:22:21;;;;;;;5.25;2.53;;;;;;;22.27;63.20;101690.28;5253285;28;20129;-72
2022/07/03 10:24:53;;;;;;;4.63;2.60;;;;;;;22.03;62.87;101694.69;5249756;28;20036;-72
2022/07/03 10:27:25;;;;;;;5.10;2.53;;;;;;;22.11;63.32;101694.69;5254751;28;20064;-72
2022/07/03 10:29:59;;;;;;;4.93;2.38;;;;;;;22.23;65.06;101686.16;5242673;28;20044;-72
2022/07/03 10:32:33;;;;;;;4.30;2.30;;;;;;;22.25;65.38;101689.59;5244009;28;20033;-72
2022/07/03 10:35:06;;;;;;;4.15;2.53;;;;;;;22.22;63.53;101689.91;5247029;28;20025;-72
2022/07/03 10:38:03;;;;;;;5.15;2.58;;;;;;;22.39;64.04;101688.03;5255176;28;20033;-72
2022/07/03 10:46:31;;;;;;;3.65;1.83;;;;;;;22.41;58.00;101691.41;5244878;28;20549;-72
2022/07/03 10:49:08;;;;;;;3.25;1.48;;;;;;;22.11;57.57;101699.25;5249710;28;20078;-73
2022/07/03 10:51:46;;;;;;;3.33;1.70;;;;;;;22.25;60.34;101700.47;5238999;28;20793;-73
2022/07/03 10:54:33;;;;;;;3.35;1.40;;;;;;;22.38;60.54;101703.50;5241884;28;20087;-74
2022/07/03 10:57:09;;;;;;;4.65;2.00;;;;;;;22.29;59.28;101699.09;5242180;28;20042;-73
2022/07/03 10:59:47;;;;;;;4.20;2.00;;;;;;;22.18;60.90;101692.13;5241128;28;20025;-73
2022/07/03 11:02:42;;;;;;;3.92;2.25;;;;;;;22.16;59.96;101698.75;5246359;28;20033;-72
2022/07/03 11:05:24;;;;;;;4.93;2.47;;;;;;;22.03;59.30;101696.56;5239274;28;20034;-73
2022/07/03 11:07:56;;;;;;;4.38;2.63;;;;;;;21.74;58.85;101701.50;5248665;28;20059;-73
2022/07/03 11:10:28;;;;;;;4.03;2.50;;;;;;;21.88;59.83;101699.97;5245729;28;20033;-72
2022/07/03 11:13:06;;;;;;;5.05;2.42;;;;;;;22.06;59.70;101688.06;5257015;28;20322;-72
2022/07/03 11:16:21;;;;;;;3.97;2.17;;;;;;;22.31;58.54;101687.00;5246525;28;20074;-73
2022/07/03 11:18:58;;;;;;;3.00;1.85;;;;;;;22.43;58.57;101682.03;5246261;28;20059;-72
2022/07/03 11:21:36;;;;;;;5.25;2.58;;;;;;;22.16;56.74;101683.28;5240891;28;20032;-72
2022/07/03 11:24:23;;;;;;;4.57;2.35;;;;;;;22.36;57.91;101689.22;5252817;28;20407;-72
2022/07/03 11:27:19;;;;;;;5.55;2.33;;;;;;;22.44;57.95;101683.75;5262790;28;20055;-72
2022/07/03 11:29:54;;;;;;;4.50;3.13;;;;;;;22.26;56.96;101678.56;5231463;28;20052;-73
2022/07/03 11:32:49;;;;;;;4.50;2.83;;;;;;;22.66;58.69;101681.28;5237901;28;20033;-72
2022/07/03 11:35:48;;;;;;;4.10;2.17;;;;;;;22.86;57.27;101674.41;5243175;28;20481;-72
2022/07/03 11:38:22;;;;;;;4.35;2.95;;;;;;;22.89;57.40;101675.91;5238444;28;20020;-72
2022/07/03 11:40:56;;;;;;;5.40;3.92;;;;;;;22.79;58.65;101672.56;5241997;28;20036;-72
2022/07/03 11:43:28;;;;;;;7.35;4.13;;;;;;;22.52;59.04;101683.72;5252196;28;20057;-71
2022/07/03 11:45:59;;;;;;;7.72;3.88;;;;;;;22.07;58.91;101678.88;5249878;28;20104;-71
2022/07/03 11:48:30;;;;;;;6.20;3.40;;;;;;;21.98;60.62;101678.06;5246996;28;20458;-71
2022/07/03 11:51:03;;;;;;;6.78;3.63;;;;;;;22.05;61.25;101667.34;5255627;28;20036;-71
2022/07/03 11:53:36;;;;;;;8.20;3.37;;;;;;;21.99;60.56;101670.75;5245969;28;20025;-72
2022/07/03 11:56:11;;;;;;;5.18;3.53;;;;;;;22.22;59.98;101671.72;5258158;28;20044;-72
2022/07/03 11:58:50;;;;;;;3.47;2.30;;;;;;;22.48;60.97;101671.50;5252633;28;20055;-71
2022/07/03 12:01:30;;;;;;;4.05;1.48;;;;;;;22.48;60.50;101671.50;5253604;28;20035;-73
2022/07/03 12:04:08;;;;;;;3.63;1.48;;;;;;;22.30;58.55;101676.31;5263967;28;20237;-73
2022/07/03 12:06:50;;;;;;;3.95;1.30;;;;;;;22.30;57.14;101671.75;5247882;28;20099;-72